Sevilla La Nueva, Spain
Current Conditions -  °F | °C
As of 8:30 AM on Friday 31 Oct 2014 (Local Time) from LEVS Reporting Station
Clear Clear  
Wind Chill: 14°   Ceiling: Unl
Heat Index: 14°   Visibility: 6mi
Dew Point:   Wind: 1mph
Humidity: 63%   Direction: NA
Pressure: 30.24"   Gusts: NA
Location:  40.35°N, 4.03°W
Report Text: LEVS 310730Z VRB01KT CAVOK 14/07 Q1024
Loading
Personal Weather Stations






























Interactive Weather Map
Tropical Storm Tracking
New forecast layout! Learn more

10-Day Weather Forecast

Advertisements
Track Severe Weather on mobile